Time;durP1;ratioP1;P1;durP2;ratioP2;P2;SDS_P1;SDS_P2;PMS_P1;PMS_P2;Temp;Humidity;BMP_temperature;BMP_pressure;BME280_temperature;BME280_humidity;BME280_pressure;Samples;Min_cycle;Max_cycle;Signal;HPM_P1;HPM_P2
2022/11/25 00:08:33;;;;;;;31.10;12.13;;;;;;;9.83;92.15;99756.72;31632172;28;20063;-75
2022/11/25 00:23:36;;;;;;;36.50;12.83;;;;;;;9.82;91.14;99730.81;31605385;28;20044;-73
2022/11/25 00:38:38;;;;;;;29.17;11.57;;;;;;;9.99;90.54;99720.72;31609936;28;20119;-74
2022/11/25 00:53:40;;;;;;;34.27;12.13;;;;;;;10.00;90.08;99712.16;31604582;28;20075;-74
2022/11/25 01:08:42;;;;;;;42.37;19.50;;;;;;;9.99;89.63;99693.63;31557016;28;20048;-74
2022/11/25 01:23:44;;;;;;;61.47;22.70;;;;;;;9.83;89.66;99711.41;31557565;28;20044;-74
2022/11/25 01:38:51;;;;;;;48.03;19.27;;;;;;;9.84;89.18;99704.81;31580285;28;20083;-74
2022/11/25 01:53:57;;;;;;;35.13;13.37;;;;;;;9.74;90.04;99726.72;31595984;28;20072;-73
2022/11/25 02:09:06;;;;;;;28.60;11.63;;;;;;;9.43;92.97;99728.94;31577596;28;20420;-73
2022/11/25 02:24:21;;;;;;;33.57;13.03;;;;;;;9.46;91.03;99728.09;31584952;28;20048;-74
2022/11/25 02:39:23;;;;;;;25.17;11.77;;;;;;;9.49;89.81;99732.66;31592413;28;20055;-74
2022/11/25 02:54:25;;;;;;;43.47;15.87;;;;;;;9.29;88.74;99734.63;31595062;28;20064;-71
2022/11/25 03:09:27;;;;;;;66.97;25.23;;;;;;;9.24;88.43;99728.53;31564823;28;20079;-70
2022/11/25 03:24:29;;;;;;;37.23;14.23;;;;;;;9.18;88.92;99735.63;31572709;28;20079;-71
2022/11/25 03:39:31;;;;;;;33.63;11.43;;;;;;;9.14;89.35;99739.59;31564836;28;20079;-70
2022/11/25 03:54:34;;;;;;;28.07;13.27;;;;;;;9.01;89.80;99736.72;31569368;28;20057;-70
2022/11/25 04:09:36;;;;;;;30.07;13.37;;;;;;;8.77;91.38;99717.06;31562392;28;20464;-70
2022/11/25 04:24:38;;;;;;;32.10;12.40;;;;;;;8.61;90.41;99729.75;31582335;28;20401;-70
2022/11/25 04:39:40;;;;;;;24.03;11.90;;;;;;;8.57;89.87;99759.56;31583724;28;20087;-70
2022/11/25 04:54:42;;;;;;;30.57;13.03;;;;;;;8.64;89.80;99762.16;31588289;28;20044;-69
2022/11/25 05:09:44;;;;;;;32.30;14.87;;;;;;;8.71;89.07;99772.09;31587860;28;20098;-70
2022/11/25 05:24:47;;;;;;;42.50;16.43;;;;;;;8.69;88.50;99790.69;31598221;28;20052;-69
2022/11/25 05:39:48;;;;;;;44.00;18.57;;;;;;;8.70;88.03;99809.22;31594843;28;20087;-71
2022/11/25 05:54:50;;;;;;;27.87;11.13;;;;;;;8.58;88.36;99817.16;31613485;28;20071;-70
2022/11/25 06:09:57;;;;;;;25.67;10.27;;;;;;;8.60;88.49;99822.91;31576770;28;20503;-70
2022/11/25 06:25:04;;;;;;;24.17;9.27;;;;;;;8.50;86.32;99827.34;31591859;28;20402;-70
2022/11/25 06:40:06;;;;;;;21.03;8.47;;;;;;;8.72;84.64;99839.34;31590895;28;20071;-69
2022/11/25 06:55:08;;;;;;;20.53;8.53;;;;;;;8.85;85.00;99836.81;31591547;28;20050;-70
2022/11/25 07:10:11;;;;;;;20.93;8.97;;;;;;;9.03;83.81;99837.25;31572842;28;20048;-84
2022/11/25 07:25:13;;;;;;;21.23;9.23;;;;;;;8.93;84.17;99842.88;31639440;28;20047;-72
2022/11/25 07:40:14;;;;;;;27.47;9.47;;;;;;;9.16;82.26;99846.31;31614324;28;20056;-72
2022/11/25 07:55:17;;;;;;;26.43;9.57;;;;;;;9.24;80.37;99874.78;31603851;28;20051;-82
2022/11/25 08:10:19;;;;;;;15.63;7.17;;;;;;;8.67;83.08;99882.34;31602239;28;20136;-68
2022/11/25 08:25:21;;;;;;;21.90;7.50;;;;;;;8.44;84.72;99894.66;31584901;28;20483;-69
2022/11/25 08:40:22;;;;;;;15.40;7.40;;;;;;;8.29;85.04;99904.09;31577155;28;20062;-69
2022/11/25 08:55:26;;;;;;;23.90;6.53;;;;;;;8.45;85.22;99895.41;31610537;28;20458;-70
2022/11/25 09:10:29;;;;;;;14.50;7.70;;;;;;;8.44;85.70;99902.78;31587677;28;20057;-81
2022/11/25 09:25:31;;;;;;;16.67;7.70;;;;;;;8.58;86.95;99890.19;31657618;28;20464;-83
2022/11/25 09:40:58;;;;;;;17.47;7.97;;;;;;;8.66;86.67;99883.50;31598655;28;20051;-70
2022/11/25 09:56:10;;;;;;;19.03;9.63;;;;;;;8.57;88.59;99884.03;31602099;28;20393;-68
2022/11/25 10:11:25;;;;;;;18.27;8.60;;;;;;;8.75;89.04;99868.28;31581486;28;20110;-70
2022/11/25 10:26:36;;;;;;;21.10;9.07;;;;;;;8.58;90.53;99876.66;31579357;28;20101;-70
2022/11/25 10:41:47;;;;;;;17.83;8.77;;;;;;;8.87;92.04;99869.63;31598212;28;20048;-68
2022/11/25 10:57:01;;;;;;;20.90;9.93;;;;;;;9.04;92.23;99865.88;31589684;28;20047;-76
2022/11/25 11:12:27;;;;;;;22.17;11.10;;;;;;;9.11;91.69;99882.00;31586042;28;20577;-69
2022/11/25 11:27:36;;;;;;;22.17;10.43;;;;;;;9.23;91.41;99873.25;31596943;28;20056;-70
2022/11/25 11:42:57;;;;;;;23.90;11.53;;;;;;;9.23;91.75;99881.38;31585790;28;20086;-70
2022/11/25 11:57:59;;;;;;;21.93;9.37;;;;;;;9.23;92.57;99884.09;31619807;28;20051;-70
2022/11/25 12:13:14;;;;;;;19.00;8.57;;;;;;;9.07;92.89;99892.13;31602153;28;20531;-81
2022/11/25 12:28:24;;;;;;;18.00;8.20;;;;;;;8.91;94.13;99889.31;31681883;28;20048;-84
2022/11/25 12:43:33;;;;;;;16.27;7.70;;;;;;;9.18;94.09;99876.47;31605578;28;20064;-69
2022/11/25 12:59:12;;;;;;;19.20;8.07;;;;;;;9.17;95.32;99874.94;31592184;28;20056;-70
2022/11/25 13:14:33;;;;;;;23.43;10.00;;;;;;;9.04;96.07;99889.47;31599599;28;20489;-71
2022/11/25 13:29:38;;;;;;;23.07;9.43;;;;;;;9.07;97.23;99891.34;31600606;28;20047;-71
2022/11/25 13:44:53;;;;;;;20.80;10.47;;;;;;;9.28;96.41;99906.47;31600090;28;20057;-70
2022/11/25 14:00:03;;;;;;;20.50;9.73;;;;;;;9.30;96.26;99920.38;31562661;28;20048;-69
2022/11/25 14:15:14;;;;;;;23.33;10.87;;;;;;;9.28;94.31;99928.13;31592724;28;20059;-70
2022/11/25 14:30:17;;;;;;;39.67;19.53;;;;;;;9.14;94.58;99951.59;31596499;28;20060;-69
2022/11/25 14:45:25;;;;;;;29.30;12.63;;;;;;;9.04;95.49;99959.88;31599042;28;20083;-70
2022/11/25 15:00:27;;;;;;;28.53;12.27;;;;;;;8.94;96.50;99958.88;31582570;28;20772;-72
2022/11/25 15:15:29;;;;;;;23.57;10.77;;;;;;;9.04;96.08;99968.75;31595470;28;20048;-71
2022/11/25 15:30:33;;;;;;;20.70;11.33;;;;;;;9.03;95.44;99963.75;31606578;28;20056;-69
2022/11/25 15:46:02;;;;;;;29.57;10.83;;;;;;;9.09;95.60;99954.75;31580279;28;20409;-70
2022/11/25 16:01:06;;;;;;;26.43;11.07;;;;;;;9.11;95.81;99957.06;31557616;28;20050;-70
2022/11/25 16:16:17;;;;;;;24.57;10.77;;;;;;;9.15;95.67;99968.59;31579814;28;20500;-72
2022/11/25 16:31:21;;;;;;;40.30;18.60;;;;;;;9.07;96.74;99978.00;31560196;28;20055;-71
2022/11/25 16:46:23;;;;;;;24.10;11.93;;;;;;;9.09;97.08;99976.41;31585068;28;20052;-71
2022/11/25 17:01:29;;;;;;;27.03;11.83;;;;;;;9.10;98.02;99967.13;31561533;28;20406;-69
2022/11/25 17:16:31;;;;;;;35.13;12.50;;;;;;;9.13;98.81;99969.00;31615137;28;21538;-71
2022/11/25 17:31:37;;;;;;;33.77;13.97;;;;;;;9.14;99.36;99970.53;31616730;28;20083;-70
2022/11/25 17:46:39;;;;;;;;;;;;;;;9.10;100.00;99972.53;31607705;28;20048;-72
2022/11/25 18:01:41;;;;;;;38.37;16.93;;;;;;;8.93;100.00;99989.81;31589418;28;19927;-73
2022/11/25 18:16:43;;;;;;;28.60;12.83;;;;;;;8.91;100.00;100002.22;31580407;28;20068;-71
2022/11/25 18:31:46;;;;;;;27.93;13.33;;;;;;;8.96;100.00;100016.09;31611399;28;20489;-72
2022/11/25 18:46:48;;;;;;;29.50;13.73;;;;;;;8.78;100.00;100031.78;31580652;28;20093;-71
2022/11/25 19:01:49;;;;;;;25.83;11.63;;;;;;;9.05;99.53;100024.44;31571013;28;20044;-73
2022/11/25 19:16:52;;;;;;;27.47;12.57;;;;;;;8.93;99.68;100060.22;31598427;28;20075;-71
2022/11/25 19:31:56;;;;;;;28.20;10.93;;;;;;;8.87;98.64;100061.84;31607082;28;20086;-71
2022/11/25 19:46:58;;;;;;;28.60;11.27;;;;;;;9.11;96.62;100066.13;31592732;28;20040;-71
2022/11/25 20:02:22;;;;;;;24.80;11.17;;;;;;;9.15;96.17;100072.28;31580052;28;20079;-71
2022/11/25 20:17:27;;;;;;;23.23;10.40;;;;;;;9.14;95.31;100086.22;31580521;28;20420;-71
2022/11/25 20:32:32;;;;;;;16.90;8.73;;;;;;;9.27;94.13;100078.28;31559562;28;20047;-70
2022/11/25 20:47:34;;;;;;;15.50;8.87;;;;;;;9.22;92.95;100110.06;31617693;28;20067;-71
2022/11/25 21:02:36;;;;;;;27.50;11.47;;;;;;;9.09;95.50;100122.66;31603708;28;20079;-69
2022/11/25 21:34:10;;;;;;;24.70;9.63;;;;;;;8.95;94.80;100132.91;31599166;28;20067;-83
2022/11/25 21:49:12;;;;;;;24.57;10.13;;;;;;;8.94;95.12;100137.56;31554740;28;20048;-70
2022/11/25 22:04:16;;;;;;;20.63;8.33;;;;;;;8.89;95.67;100148.81;31465766;28;20076;-71
2022/11/25 22:19:21;;;;;;;19.80;8.60;;;;;;;8.79;97.49;100158.59;31461351;28;20071;-71
2022/11/25 22:34:28;;;;;;;16.73;8.70;;;;;;;8.66;98.86;100164.94;31569558;28;20558;-80
2022/11/25 22:49:46;;;;;;;21.47;8.17;;;;;;;8.62;100.00;100164.22;31559449;28;20123;-71
2022/11/25 23:04:52;;;;;;;21.47;9.97;;;;;;;8.51;100.00;100170.50;31590640;28;20053;-72
2022/11/25 23:19:55;;;;;;;19.17;8.87;;;;;;;8.42;100.00;100170.22;31590102;28;20098;-70
2022/11/25 23:34:56;;;;;;;23.40;11.80;;;;;;;8.43;100.00;100177.16;31588103;28;20058;-70
2022/11/25 23:49:59;;;;;;;21.13;8.07;;;;;;;8.46;100.00;100184.47;31593612;28;20082;-71
